createdAt,value
2023-01-30T00:00:27.876Z,3.35
2023-01-30T00:01:27.068Z,3.42
2023-01-30T00:02:27.096Z,3.41
2023-01-30T00:03:27.077Z,3.42
2023-01-30T00:04:27.050Z,3.39
2023-01-30T00:05:27.032Z,3.41
2023-01-30T00:06:27.028Z,3.45
2023-01-30T00:07:27.028Z,3.41
2023-01-30T00:08:27.432Z,3.45
2023-01-30T00:09:26.991Z,3.49
2023-01-30T00:10:26.976Z,3.52
2023-01-30T00:11:26.954Z,3.44
2023-01-30T00:12:27.401Z,3.50
2023-01-30T00:13:26.939Z,3.46
2023-01-30T00:14:26.936Z,3.46
2023-01-30T00:15:26.914Z,3.54
2023-01-30T00:16:26.956Z,3.49
2023-01-30T00:17:26.896Z,3.53
2023-01-30T00:18:26.962Z,3.54
2023-01-30T00:19:26.870Z,3.46
2023-01-30T00:20:27.894Z,3.57
2023-01-30T00:21:29.362Z,3.53
2023-01-30T00:22:26.848Z,3.56
2023-01-30T00:23:26.838Z,3.53
2023-01-30T00:24:27.000Z,3.56
2023-01-30T00:25:27.103Z,3.57
2023-01-30T00:26:26.860Z,3.56
2023-01-30T00:27:26.788Z,3.59
2023-01-30T00:28:26.780Z,3.60
2023-01-30T00:29:26.771Z,3.57
2023-01-30T00:30:26.794Z,3.57
2023-01-30T00:31:26.817Z,3.67
2023-01-30T00:32:26.736Z,3.60
2023-01-30T00:33:26.729Z,3.60
2023-01-30T00:34:26.725Z,3.62
2023-01-30T00:35:26.910Z,3.57
2023-01-30T00:36:26.895Z,3.62
2023-01-30T00:37:26.684Z,3.57
2023-01-30T00:38:26.681Z,3.64
2023-01-30T00:39:33.382Z,3.60
2023-01-30T00:40:26.669Z,3.60
2023-01-30T00:41:26.640Z,3.71
2023-01-30T00:42:26.622Z,3.70
2023-01-30T00:43:26.642Z,3.72
2023-01-30T00:44:26.615Z,3.71
2023-01-30T00:45:26.930Z,3.72
2023-01-30T00:46:29.869Z,3.72
2023-01-30T00:47:27.371Z,3.72
2023-01-30T00:48:26.576Z,3.70
2023-01-30T00:49:26.555Z,3.71
2023-01-30T00:50:26.539Z,3.81
2023-01-30T00:51:33.367Z,3.81
2023-01-30T00:52:26.532Z,3.81
2023-01-30T00:53:26.514Z,3.82
2023-01-30T00:54:26.504Z,3.75
2023-01-30T00:55:26.490Z,3.74
2023-01-30T00:56:26.494Z,3.72
2023-01-30T00:57:26.482Z,3.77
2023-01-30T00:58:26.455Z,3.75
2023-01-30T00:59:26.447Z,3.88
2023-01-30T01:00:26.431Z,3.78
2023-01-30T01:01:26.425Z,3.88
2023-01-30T01:02:26.413Z,3.80
2023-01-30T01:03:26.429Z,3.80
2023-01-30T01:04:26.427Z,3.90
2023-01-30T01:05:26.380Z,3.81
2023-01-30T01:06:26.385Z,3.88
2023-01-30T01:07:26.365Z,3.90
2023-01-30T01:08:26.354Z,3.88
2023-01-30T01:09:26.351Z,3.95
2023-01-30T01:10:26.325Z,3.92
2023-01-30T01:11:26.297Z,3.95
2023-01-30T01:12:26.317Z,3.96
2023-01-30T01:13:26.283Z,3.93
2023-01-30T01:14:26.293Z,3.92
2023-01-30T01:15:26.394Z,3.89
2023-01-30T01:16:26.315Z,3.93
2023-01-30T01:17:26.233Z,3.98
2023-01-30T01:18:26.241Z,3.93
2023-01-30T01:19:26.403Z,3.93
2023-01-30T01:20:26.239Z,3.90
2023-01-30T01:21:26.211Z,3.93
2023-01-30T01:22:26.195Z,3.95
2023-01-30T01:23:26.172Z,3.92
2023-01-30T01:24:26.192Z,3.88
2023-01-30T01:25:26.394Z,3.96
2023-01-30T01:26:26.222Z,3.92
2023-01-30T01:27:26.862Z,3.93
2023-01-30T01:28:26.403Z,3.92
2023-01-30T01:29:26.116Z,3.90
2023-01-30T01:30:26.105Z,3.88
2023-01-30T01:31:28.975Z,3.93
2023-01-30T01:32:26.092Z,3.93
2023-01-30T01:33:26.070Z,3.95
2023-01-30T01:34:26.093Z,3.93
2023-01-30T01:35:26.055Z,3.92
2023-01-30T01:36:55.021Z,3.96
2023-01-30T01:37:27.049Z,3.93
2023-01-30T01:38:26.030Z,4.02
2023-01-30T01:39:26.886Z,3.98
2023-01-30T01:40:26.900Z,3.96
2023-01-30T01:41:26.884Z,3.98
2023-01-30T01:42:29.882Z,3.93
2023-01-30T01:43:27.893Z,3.99
2023-01-30T01:44:25.969Z,4.00
2023-01-30T01:45:25.970Z,3.98
2023-01-30T01:46:26.874Z,3.95
2023-01-30T01:47:25.918Z,3.99
2023-01-30T01:48:25.941Z,3.98
2023-01-30T01:49:32.886Z,4.04
2023-01-30T01:50:26.432Z,4.06
2023-01-30T01:51:25.879Z,3.99
2023-01-30T01:52:25.875Z,4.02
2023-01-30T01:53:25.859Z,3.95
2023-01-30T01:54:25.861Z,4.02
2023-01-30T01:55:25.854Z,4.00
2023-01-30T01:56:25.852Z,3.98
2023-01-30T01:57:25.836Z,3.98
2023-01-30T01:58:28.375Z,4.06
2023-01-30T01:59:25.797Z,4.04
2023-01-30T02:00:25.794Z,4.07
2023-01-30T02:01:25.928Z,4.04
2023-01-30T02:02:25.775Z,4.02
2023-01-30T02:03:25.765Z,4.08
2023-01-30T02:04:25.742Z,4.07
2023-01-30T02:05:25.753Z,4.13
2023-01-30T02:06:28.376Z,4.07
2023-01-30T02:07:25.712Z,4.06
2023-01-30T02:08:25.690Z,4.17
2023-01-30T02:09:26.727Z,4.18
2023-01-30T02:10:25.691Z,4.13
2023-01-30T02:11:25.702Z,4.17
2023-01-30T02:12:25.676Z,4.26
2023-01-30T02:13:25.650Z,4.21
2023-01-30T02:14:25.629Z,4.20
2023-01-30T02:15:25.622Z,4.21
2023-01-30T02:16:25.622Z,4.14
2023-01-30T02:17:25.610Z,4.28
2023-01-30T02:18:25.590Z,4.26
2023-01-30T02:19:25.565Z,4.29
2023-01-30T02:20:25.575Z,4.20
2023-01-30T02:21:25.566Z,4.29
2023-01-30T02:22:25.540Z,4.32
2023-01-30T02:23:25.535Z,4.24
2023-01-30T02:24:25.521Z,4.26
2023-01-30T02:25:25.530Z,4.26
2023-01-30T02:26:25.562Z,4.26
2023-01-30T02:27:25.505Z,4.25
2023-01-30T02:28:25.481Z,4.31
2023-01-30T02:29:25.467Z,4.24
2023-01-30T02:30:25.571Z,4.24
2023-01-30T02:31:25.656Z,4.25
2023-01-30T02:32:25.434Z,4.21
2023-01-30T02:33:28.384Z,4.18
2023-01-30T02:34:25.431Z,4.25
2023-01-30T02:35:25.409Z,4.18
2023-01-30T02:36:25.392Z,4.26
2023-01-30T02:37:25.391Z,4.26
2023-01-30T02:38:25.370Z,4.21
2023-01-30T02:39:25.360Z,4.28
2023-01-30T02:40:25.343Z,4.24
2023-01-30T02:41:25.415Z,4.28
2023-01-30T02:42:25.347Z,4.29
2023-01-30T02:43:26.333Z,4.28
2023-01-30T02:44:25.302Z,4.32
2023-01-30T02:45:25.292Z,4.35
2023-01-30T02:46:25.303Z,4.29
2023-01-30T02:47:25.300Z,4.34
2023-01-30T02:48:25.256Z,4.39
2023-01-30T02:49:25.255Z,4.34
2023-01-30T02:50:25.259Z,4.38
2023-01-30T02:51:25.226Z,4.31
2023-01-30T02:52:25.237Z,4.44
2023-01-30T02:53:25.205Z,4.43
2023-01-30T02:54:25.238Z,4.39
2023-01-30T02:55:25.182Z,4.42
2023-01-30T02:56:25.185Z,4.44
2023-01-30T02:57:25.161Z,4.44
2023-01-30T02:58:25.174Z,4.44
2023-01-30T02:59:25.133Z,4.39
2023-01-30T03:00:25.145Z,4.47
2023-01-30T03:01:25.158Z,4.42
2023-01-30T03:02:25.142Z,4.50
2023-01-30T03:03:25.124Z,4.50
2023-01-30T03:04:25.086Z,4.43
2023-01-30T03:05:25.077Z,4.44
2023-01-30T03:06:27.870Z,4.43
2023-01-30T03:07:25.047Z,4.51
2023-01-30T03:08:25.039Z,4.44
2023-01-30T03:09:25.046Z,4.54
2023-01-30T03:10:25.858Z,4.49
2023-01-30T03:11:25.015Z,4.54
2023-01-30T03:12:25.004Z,4.51
2023-01-30T03:13:24.999Z,4.51
2023-01-30T03:14:26.025Z,4.53
2023-01-30T03:15:24.953Z,4.64
2023-01-30T03:16:25.058Z,4.61
2023-01-30T03:17:24.941Z,4.62
2023-01-30T03:18:25.982Z,4.72
2023-01-30T03:19:25.864Z,4.68
2023-01-30T03:20:24.927Z,4.67
2023-01-30T03:21:24.922Z,4.71
2023-01-30T03:22:24.899Z,4.64
2023-01-30T03:23:24.889Z,4.68
2023-01-30T03:24:24.866Z,4.72
2023-01-30T03:25:24.858Z,4.65
2023-01-30T03:26:24.942Z,4.83
2023-01-30T03:27:24.902Z,4.74
2023-01-30T03:28:24.821Z,4.77
2023-01-30T03:29:24.843Z,4.75
2023-01-30T03:30:24.868Z,4.79
2023-01-30T03:31:24.920Z,4.77
2023-01-30T03:32:25.359Z,4.84
2023-01-30T03:33:24.779Z,4.88
2023-01-30T03:34:25.380Z,4.79
2023-01-30T03:35:25.837Z,4.88
2023-01-30T03:36:24.738Z,4.80
2023-01-30T03:37:24.889Z,4.87
2023-01-30T03:38:24.718Z,4.90
2023-01-30T03:39:24.704Z,4.93
2023-01-30T03:40:24.701Z,4.90
2023-01-30T03:41:24.712Z,4.91
2023-01-30T03:42:25.369Z,4.90
2023-01-30T03:43:24.674Z,4.90
2023-01-30T03:44:24.682Z,5.06
2023-01-30T03:45:24.668Z,5.02
2023-01-30T03:46:24.723Z,5.01
2023-01-30T03:47:24.625Z,5.02
2023-01-30T03:48:24.608Z,5.04
2023-01-30T03:49:24.616Z,5.05
2023-01-30T03:50:24.621Z,5.06
2023-01-30T03:51:24.594Z,5.06
2023-01-30T03:52:24.567Z,5.17
2023-01-30T03:53:24.569Z,5.19
2023-01-30T03:54:24.535Z,5.17
2023-01-30T03:55:24.546Z,5.15
2023-01-30T03:56:24.925Z,5.19
2023-01-30T03:57:24.523Z,5.14
2023-01-30T03:58:24.505Z,5.24
2023-01-30T03:59:24.494Z,5.29
2023-01-30T04:00:24.511Z,5.38
2023-01-30T04:01:24.543Z,5.42
2023-01-30T04:02:24.505Z,5.38
2023-01-30T04:03:24.467Z,5.32
2023-01-30T04:04:24.460Z,5.33
2023-01-30T04:05:24.427Z,5.37
2023-01-30T04:06:24.416Z,5.44
2023-01-30T04:07:24.403Z,5.33
2023-01-30T04:08:24.406Z,5.38
2023-01-30T04:09:24.404Z,5.37
2023-01-30T04:10:24.379Z,5.42
2023-01-30T04:11:24.360Z,5.40
2023-01-30T04:12:24.348Z,5.38
2023-01-30T04:13:24.361Z,5.37
2023-01-30T04:14:24.323Z,5.44
2023-01-30T04:15:24.324Z,5.41
2023-01-30T04:16:24.382Z,5.48
2023-01-30T04:17:24.300Z,5.45
2023-01-30T04:18:24.302Z,5.42
2023-01-30T04:19:24.296Z,5.48
2023-01-30T04:20:24.263Z,5.41
2023-01-30T04:21:24.256Z,5.37
2023-01-30T04:22:24.244Z,5.41
2023-01-30T04:23:24.237Z,5.52
2023-01-30T04:24:24.243Z,5.48
2023-01-30T04:25:26.871Z,5.47
2023-01-30T04:26:24.227Z,5.49
2023-01-30T04:27:24.203Z,5.45
2023-01-30T04:28:24.180Z,5.52
2023-01-30T04:29:24.400Z,5.45
2023-01-30T04:30:26.907Z,5.48
2023-01-30T04:31:24.160Z,5.48
2023-01-30T04:32:24.888Z,5.47
2023-01-30T04:33:24.133Z,5.49
2023-01-30T04:34:24.135Z,5.52
2023-01-30T04:35:24.135Z,5.55
2023-01-30T04:36:24.089Z,5.51
2023-01-30T04:37:24.099Z,5.44
2023-01-30T04:38:24.097Z,5.51
2023-01-30T04:39:24.068Z,5.55
2023-01-30T04:40:24.040Z,5.42
2023-01-30T04:41:24.112Z,5.58
2023-01-30T04:42:24.030Z,5.58
2023-01-30T04:43:24.024Z,5.55
2023-01-30T04:44:24.014Z,5.58
2023-01-30T04:45:23.995Z,5.52
2023-01-30T04:46:24.031Z,5.44
2023-01-30T04:47:23.995Z,5.51
2023-01-30T04:48:23.983Z,5.49
2023-01-30T04:49:23.950Z,5.47
2023-01-30T04:50:23.960Z,5.55
2023-01-30T04:51:23.933Z,5.58
2023-01-30T04:52:24.951Z,5.56
2023-01-30T04:53:23.911Z,5.55
2023-01-30T04:54:23.905Z,5.51
2023-01-30T04:55:23.906Z,5.58
2023-01-30T04:56:24.406Z,5.58
2023-01-30T04:57:23.875Z,5.56
2023-01-30T04:58:23.881Z,5.44
2023-01-30T04:59:23.860Z,5.56
2023-01-30T05:00:26.397Z,5.52
2023-01-30T05:01:23.835Z,5.58
2023-01-30T05:02:24.078Z,5.52
2023-01-30T05:03:23.808Z,5.60
2023-01-30T05:04:24.386Z,5.59
2023-01-30T05:05:24.371Z,5.66
2023-01-30T05:06:23.763Z,5.58
2023-01-30T05:07:23.789Z,5.69
2023-01-30T05:08:23.745Z,5.63
2023-01-30T05:09:23.778Z,5.65
2023-01-30T05:10:23.738Z,5.66
2023-01-30T05:11:23.717Z,5.63
2023-01-30T05:12:23.723Z,5.60
2023-01-30T05:13:23.695Z,5.66
2023-01-30T05:14:23.698Z,5.59
2023-01-30T05:15:24.734Z,5.65
2023-01-30T05:16:23.668Z,5.65
2023-01-30T05:17:23.919Z,5.65
2023-01-30T05:18:23.646Z,5.59
2023-01-30T05:19:23.669Z,5.59
2023-01-30T05:20:23.632Z,5.59
2023-01-30T05:21:26.368Z,5.59
2023-01-30T05:22:23.638Z,5.60
2023-01-30T05:23:23.590Z,5.66
2023-01-30T05:24:23.581Z,5.60
2023-01-30T05:25:23.566Z,5.67
2023-01-30T05:26:23.632Z,5.70
2023-01-30T05:27:23.564Z,5.66
2023-01-30T05:28:23.542Z,5.60
2023-01-30T05:29:23.544Z,5.66
2023-01-30T05:30:23.520Z,5.65
2023-01-30T05:31:23.580Z,5.65
2023-01-30T05:32:23.485Z,5.66
2023-01-30T05:33:23.510Z,5.63
2023-01-30T05:34:23.471Z,5.59
2023-01-30T05:35:24.477Z,5.66
2023-01-30T05:36:23.486Z,5.69
2023-01-30T05:37:23.440Z,5.65
2023-01-30T05:38:23.447Z,5.63
2023-01-30T05:39:23.426Z,5.65
2023-01-30T05:40:23.407Z,5.73
2023-01-30T05:41:23.406Z,5.73
2023-01-30T05:42:23.389Z,5.67
2023-01-30T05:43:23.408Z,5.65
2023-01-30T05:44:23.389Z,5.69
2023-01-30T05:45:23.360Z,5.67
2023-01-30T05:46:24.442Z,5.74
2023-01-30T05:47:23.333Z,5.67
2023-01-30T05:48:23.324Z,5.73
2023-01-30T05:49:23.326Z,5.73
2023-01-30T05:50:23.300Z,5.69
2023-01-30T05:51:23.290Z,5.74
2023-01-30T05:52:25.355Z,5.74
2023-01-30T05:53:23.268Z,5.74
2023-01-30T05:54:23.270Z,5.70
2023-01-30T05:55:23.255Z,5.74
2023-01-30T05:56:23.232Z,5.70
2023-01-30T05:57:23.216Z,5.73
2023-01-30T05:58:23.221Z,5.75
2023-01-30T05:59:23.228Z,5.75
2023-01-30T06:00:23.197Z,5.74
2023-01-30T06:01:23.198Z,5.78
2023-01-30T06:02:23.207Z,5.74
2023-01-30T06:03:23.268Z,5.74
2023-01-30T06:04:23.148Z,5.78
2023-01-30T06:05:23.140Z,5.74
2023-01-30T06:06:23.136Z,5.73
2023-01-30T06:07:23.140Z,5.74
2023-01-30T06:08:23.132Z,5.77
2023-01-30T06:09:23.103Z,5.77
2023-01-30T06:10:23.077Z,5.78
2023-01-30T06:11:23.074Z,5.77
2023-01-30T06:12:23.076Z,5.77
2023-01-30T06:13:23.075Z,5.78
2023-01-30T06:14:23.027Z,5.78
2023-01-30T06:15:23.034Z,5.77
2023-01-30T06:16:23.104Z,5.83
2023-01-30T06:17:23.036Z,5.80
2023-01-30T06:18:22.986Z,5.74
2023-01-30T06:19:22.984Z,5.80
2023-01-30T06:20:22.982Z,5.73
2023-01-30T06:21:22.986Z,5.78
2023-01-30T06:22:22.952Z,5.75
2023-01-30T06:23:22.969Z,5.83
2023-01-30T06:24:22.931Z,5.92
2023-01-30T06:25:22.923Z,5.85
2023-01-30T06:26:22.953Z,5.84
2023-01-30T06:27:22.920Z,5.88
2023-01-30T06:28:22.888Z,5.85
2023-01-30T06:29:22.901Z,5.84
2023-01-30T06:30:22.900Z,5.87
2023-01-30T06:31:22.901Z,5.85
2023-01-30T06:32:22.840Z,5.95
2023-01-30T06:33:22.841Z,5.87
2023-01-30T06:34:22.836Z,5.90
2023-01-30T06:35:22.808Z,5.93
2023-01-30T06:36:22.802Z,5.90
2023-01-30T06:37:22.797Z,5.88
2023-01-30T06:38:22.797Z,5.93
2023-01-30T06:39:22.782Z,6.01
2023-01-30T06:40:22.764Z,6.03
2023-01-30T06:41:22.756Z,6.03
2023-01-30T06:42:22.734Z,5.99
2023-01-30T06:43:22.710Z,6.05
2023-01-30T06:44:22.724Z,6.03
2023-01-30T06:45:22.722Z,6.05
2023-01-30T06:46:22.740Z,6.05
2023-01-30T06:47:22.689Z,6.16
2023-01-30T06:48:22.680Z,6.16
2023-01-30T06:49:22.658Z,6.11
2023-01-30T06:50:22.678Z,6.20
2023-01-30T06:51:22.666Z,6.19
2023-01-30T06:52:22.678Z,6.17
2023-01-30T06:53:22.608Z,6.24
2023-01-30T06:54:22.597Z,6.30
2023-01-30T06:55:22.617Z,6.25
2023-01-30T06:56:22.626Z,6.28
2023-01-30T06:57:22.570Z,6.32
2023-01-30T06:58:22.579Z,6.27
2023-01-30T06:59:22.556Z,6.35
2023-01-30T07:00:22.538Z,6.24
2023-01-30T07:01:22.548Z,6.32
2023-01-30T07:02:22.518Z,6.28
2023-01-30T07:03:22.510Z,6.35
2023-01-30T07:04:22.595Z,6.33
2023-01-30T07:05:22.505Z,6.35
2023-01-30T07:06:22.477Z,6.39
2023-01-30T07:07:22.482Z,6.38
2023-01-30T07:08:24.228Z,6.32
2023-01-30T07:09:22.438Z,6.30
2023-01-30T07:10:22.434Z,6.39
2023-01-30T07:11:22.431Z,6.32
2023-01-30T07:12:22.423Z,6.39
2023-01-30T07:13:22.389Z,6.38
2023-01-30T07:14:22.385Z,6.43
2023-01-30T07:15:22.373Z,6.51
2023-01-30T07:16:22.385Z,6.50
2023-01-30T07:17:22.364Z,6.43
2023-01-30T07:18:22.351Z,6.42
2023-01-30T07:19:22.353Z,6.35
2023-01-30T07:20:22.322Z,6.28
2023-01-30T07:21:22.322Z,6.24
2023-01-30T07:22:23.361Z,6.30
2023-01-30T07:23:22.285Z,6.20
2023-01-30T07:24:22.293Z,6.20
2023-01-30T07:25:22.265Z,6.19
2023-01-30T07:26:23.316Z,6.19
2023-01-30T07:27:22.241Z,6.14
2023-01-30T07:28:22.252Z,6.16
2023-01-30T07:29:22.218Z,6.16
2023-01-30T07:30:22.261Z,6.27
2023-01-30T07:31:22.294Z,6.17
2023-01-30T07:32:22.181Z,6.27
2023-01-30T07:33:22.173Z,6.28
2023-01-30T07:34:22.167Z,6.25
2023-01-30T07:35:22.612Z,6.16
2023-01-30T07:36:22.138Z,6.25
2023-01-30T07:37:22.120Z,6.21
2023-01-30T07:38:22.146Z,6.16
2023-01-30T07:39:22.128Z,6.17
2023-01-30T07:40:22.091Z,6.17
2023-01-30T07:41:22.076Z,6.14
2023-01-30T07:42:22.092Z,6.16
2023-01-30T07:43:22.063Z,6.20
2023-01-30T07:44:22.105Z,6.19
2023-01-30T07:45:22.041Z,6.11
2023-01-30T07:46:22.046Z,6.28
2023-01-30T07:47:22.023Z,6.21
2023-01-30T07:48:22.021Z,6.11
2023-01-30T07:49:22.004Z,6.25
2023-01-30T07:50:21.985Z,6.11
2023-01-30T07:51:21.974Z,6.14
2023-01-30T07:52:21.965Z,6.16
2023-01-30T07:53:21.956Z,6.06
2023-01-30T07:54:21.965Z,6.20
2023-01-30T07:55:21.927Z,6.17
2023-01-30T07:56:21.924Z,6.17
2023-01-30T07:57:21.902Z,6.08
2023-01-30T07:58:21.903Z,6.19
2023-01-30T07:59:21.903Z,6.10
2023-01-30T08:00:21.895Z,6.08
2023-01-30T08:01:21.953Z,6.03
2023-01-30T08:02:21.853Z,6.10
2023-01-30T08:03:21.838Z,6.13
2023-01-30T08:04:21.884Z,6.11
2023-01-30T08:05:21.829Z,6.11
2023-01-30T08:06:21.818Z,6.08
2023-01-30T08:07:21.818Z,6.16
2023-01-30T08:08:21.805Z,6.25
2023-01-30T08:09:21.774Z,6.27
2023-01-30T08:10:21.884Z,6.32
2023-01-30T08:11:21.774Z,6.36
2023-01-30T08:12:21.754Z,6.42
2023-01-30T08:13:21.736Z,6.39
2023-01-30T08:14:21.727Z,6.45
2023-01-30T08:15:22.934Z,6.38
2023-01-30T08:16:21.746Z,6.45
2023-01-30T08:17:21.739Z,6.55
2023-01-30T08:18:21.677Z,6.61
2023-01-30T08:19:21.673Z,6.61
2023-01-30T08:20:21.961Z,6.57
2023-01-30T08:21:21.670Z,6.55
2023-01-30T08:22:21.644Z,6.43
2023-01-30T08:23:21.644Z,6.46
2023-01-30T08:24:21.617Z,6.46
2023-01-30T08:25:21.643Z,6.45
2023-01-30T08:26:21.657Z,6.51
2023-01-30T08:27:21.569Z,6.42
2023-01-30T08:28:22.642Z,6.45
2023-01-30T08:29:21.569Z,6.50
2023-01-30T08:30:22.026Z,6.45
2023-01-30T08:31:21.542Z,6.53
2023-01-30T08:32:21.554Z,6.45
2023-01-30T08:33:21.536Z,6.48
2023-01-30T08:34:21.511Z,6.39
2023-01-30T08:35:21.512Z,6.35
2023-01-30T08:36:21.496Z,6.43
2023-01-30T08:37:21.467Z,6.45
2023-01-30T08:38:21.475Z,6.48
2023-01-30T08:39:22.487Z,6.51
2023-01-30T08:40:21.559Z,6.61
2023-01-30T08:41:21.460Z,6.58
2023-01-30T08:42:21.415Z,6.63
2023-01-30T08:43:21.409Z,6.61
2023-01-30T08:44:21.398Z,6.63
2023-01-30T08:45:21.386Z,6.60
2023-01-30T08:46:21.409Z,6.63
2023-01-30T08:47:21.399Z,6.75
2023-01-30T08:48:21.365Z,6.76
2023-01-30T08:49:21.346Z,6.72
2023-01-30T08:50:21.448Z,6.78
2023-01-30T08:51:21.314Z,6.72
2023-01-30T08:52:21.328Z,6.71
2023-01-30T08:53:21.301Z,6.75
2023-01-30T08:54:21.301Z,6.75
2023-01-30T08:55:21.305Z,6.82
2023-01-30T08:56:21.265Z,6.73
2023-01-30T08:57:21.254Z,6.76
2023-01-30T08:58:21.248Z,6.72
2023-01-30T08:59:21.221Z,6.68
2023-01-30T09:00:21.239Z,6.71
2023-01-30T09:01:21.249Z,6.61
2023-01-30T09:02:21.238Z,6.64
2023-01-30T09:03:21.188Z,6.64
2023-01-30T09:04:21.207Z,6.63
2023-01-30T09:05:21.186Z,6.57
2023-01-30T09:06:21.158Z,6.60
2023-01-30T09:07:21.134Z,6.63
2023-01-30T09:08:21.149Z,6.63
2023-01-30T09:09:21.114Z,6.72
2023-01-30T09:10:21.416Z,6.69
2023-01-30T09:11:21.112Z,6.78
2023-01-30T09:12:21.101Z,6.72
2023-01-30T09:13:21.070Z,6.68
2023-01-30T09:14:21.084Z,6.72
2023-01-30T09:15:21.060Z,6.73
2023-01-30T09:16:21.120Z,6.71
2023-01-30T09:17:21.038Z,6.76
2023-01-30T09:18:21.022Z,6.79
2023-01-30T09:19:21.021Z,6.75
2023-01-30T09:20:21.162Z,6.76
2023-01-30T09:21:20.983Z,6.75
2023-01-30T09:22:20.999Z,6.75
2023-01-30T09:23:20.950Z,6.72
2023-01-30T09:24:20.964Z,6.79
2023-01-30T09:25:20.935Z,6.75
2023-01-30T09:26:20.984Z,6.79
2023-01-30T09:27:20.920Z,6.79
2023-01-30T09:28:20.911Z,6.75
2023-01-30T09:29:20.910Z,6.76
2023-01-30T09:30:21.340Z,6.78
2023-01-30T09:31:20.977Z,6.76
2023-01-30T09:32:20.860Z,6.79
2023-01-30T09:33:21.915Z,6.72
2023-01-30T09:34:20.845Z,6.79
2023-01-30T09:35:20.830Z,6.78
2023-01-30T09:36:20.888Z,6.75
2023-01-30T09:37:20.833Z,6.82
2023-01-30T09:38:20.792Z,6.81
2023-01-30T09:39:20.788Z,6.87
2023-01-30T09:40:20.933Z,6.81
2023-01-30T09:41:20.790Z,6.83
2023-01-30T09:42:20.750Z,6.86
2023-01-30T09:43:20.743Z,6.81
2023-01-30T09:44:20.745Z,6.78
2023-01-30T09:45:20.713Z,6.82
2023-01-30T09:46:20.850Z,6.83
2023-01-30T09:47:20.694Z,6.87
2023-01-30T09:48:20.695Z,6.78
2023-01-30T09:49:20.703Z,6.90
2023-01-30T09:50:21.055Z,6.91
2023-01-30T09:51:20.659Z,6.94
2023-01-30T09:52:20.668Z,6.93
2023-01-30T09:53:20.626Z,6.91
2023-01-30T09:54:20.634Z,6.93
2023-01-30T09:55:20.625Z,6.93
2023-01-30T09:56:20.618Z,7.05
2023-01-30T09:57:20.628Z,6.96
2023-01-30T09:58:20.588Z,7.05
2023-01-30T09:59:20.589Z,6.96
2023-01-30T10:00:20.785Z,6.99
2023-01-30T10:01:21.540Z,6.96
2023-01-30T10:02:20.575Z,6.94
2023-01-30T10:03:20.542Z,6.96
2023-01-30T10:04:20.538Z,7.15
2023-01-30T10:05:21.530Z,7.09
2023-01-30T10:06:20.528Z,7.16
2023-01-30T10:07:20.478Z,7.23
2023-01-30T10:08:20.542Z,7.19
2023-01-30T10:09:20.456Z,7.21
2023-01-30T10:10:20.651Z,7.27
2023-01-30T10:11:20.438Z,7.27
2023-01-30T10:12:20.419Z,7.24
2023-01-30T10:13:20.422Z,7.18
2023-01-30T10:14:20.415Z,7.18
2023-01-30T10:15:21.413Z,7.18
2023-01-30T10:16:20.455Z,7.18
2023-01-30T10:17:21.399Z,7.12
2023-01-30T10:18:20.402Z,7.15
2023-01-30T10:19:34.857Z,7.23
2023-01-30T10:20:21.624Z,7.09
2023-01-30T10:21:20.358Z,7.08
2023-01-30T10:22:20.344Z,7.12
2023-01-30T10:23:20.311Z,7.11
2023-01-30T10:24:20.323Z,7.12
2023-01-30T10:25:20.325Z,7.11
2023-01-30T10:26:20.340Z,7.11
2023-01-30T10:27:20.277Z,7.14
2023-01-30T10:28:20.255Z,7.14
2023-01-30T10:29:20.251Z,7.14
2023-01-30T10:30:20.739Z,7.14
2023-01-30T10:31:20.279Z,7.15
2023-01-30T10:32:20.203Z,7.15
2023-01-30T10:33:20.210Z,7.14
2023-01-30T10:34:20.180Z,7.12
2023-01-30T10:35:20.182Z,7.08
2023-01-30T10:36:20.152Z,7.12
2023-01-30T10:37:20.143Z,7.09
2023-01-30T10:38:20.141Z,7.18
2023-01-30T10:39:20.152Z,7.11
2023-01-30T10:40:20.435Z,7.11
2023-01-30T10:41:20.115Z,7.08
2023-01-30T10:42:20.106Z,7.09
2023-01-30T10:43:20.083Z,7.00
2023-01-30T10:44:20.068Z,7.07
2023-01-30T10:45:20.084Z,6.93
2023-01-30T10:46:20.067Z,7.07
2023-01-30T10:47:22.126Z,7.05
2023-01-30T10:48:20.027Z,7.12
2023-01-30T10:49:20.045Z,7.12
2023-01-30T10:50:20.557Z,7.08
2023-01-30T10:51:20.000Z,7.04
2023-01-30T10:52:20.004Z,6.90
2023-01-30T10:53:19.971Z,6.97
2023-01-30T10:54:20.985Z,7.05
2023-01-30T10:55:28.143Z,7.12
2023-01-30T10:56:20.970Z,7.11
2023-01-30T10:57:19.968Z,7.16
2023-01-30T10:58:19.918Z,7.16
2023-01-30T10:59:19.895Z,7.14
2023-01-30T11:00:20.145Z,7.18
2023-01-30T11:01:19.904Z,7.18
2023-01-30T11:02:19.872Z,7.15
2023-01-30T11:03:19.880Z,7.16
2023-01-30T11:04:19.851Z,7.18
2023-01-30T11:05:20.199Z,7.18
2023-01-30T11:06:19.834Z,7.16
2023-01-30T11:07:19.819Z,7.12
2023-01-30T11:08:19.832Z,7.12
2023-01-30T11:09:19.795Z,7.14
2023-01-30T11:10:19.927Z,7.11
2023-01-30T11:11:19.775Z,7.12
2023-01-30T11:12:19.842Z,7.19
2023-01-30T11:13:19.769Z,7.26
2023-01-30T11:14:19.781Z,7.27
2023-01-30T11:15:20.026Z,7.27
2023-01-30T11:16:19.782Z,7.19
2023-01-30T11:17:19.705Z,7.27
2023-01-30T11:19:22.398Z,7.21
2023-01-30T11:20:20.157Z,7.23
2023-01-30T11:21:19.667Z,7.19
2023-01-30T11:22:19.673Z,7.16
2023-01-30T11:23:21.404Z,7.26
2023-01-30T11:24:19.660Z,7.19
2023-01-30T11:25:20.101Z,7.26
2023-01-30T11:26:19.670Z,7.23
2023-01-30T11:27:19.619Z,7.16
2023-01-30T11:28:19.626Z,7.32
2023-01-30T11:29:19.575Z,7.30
2023-01-30T11:30:20.101Z,7.26
2023-01-30T11:31:28.263Z,7.33
2023-01-30T11:32:20.580Z,7.32
2023-01-30T11:33:19.552Z,7.34
2023-01-30T11:34:19.525Z,7.37
2023-01-30T11:35:19.519Z,7.34
2023-01-30T11:36:19.520Z,7.34
2023-01-30T11:37:19.490Z,7.30
2023-01-30T11:38:19.478Z,7.42
2023-01-30T11:39:19.491Z,7.37
2023-01-30T11:40:20.013Z,7.42
2023-01-30T11:41:19.480Z,7.50
2023-01-30T11:42:19.431Z,7.41
2023-01-30T11:43:19.418Z,7.52
2023-01-30T11:44:19.440Z,7.41
2023-01-30T11:45:19.410Z,7.34
2023-01-30T11:46:19.418Z,7.54
2023-01-30T11:47:19.381Z,7.44
2023-01-30T11:49:01.445Z,7.54
2023-01-30T11:49:45.548Z,7.47
2023-01-30T11:50:29.679Z,7.48
2023-01-30T11:51:20.361Z,7.55
2023-01-30T11:52:19.331Z,7.51
2023-01-30T11:53:19.317Z,7.60
2023-01-30T11:54:19.323Z,7.71
2023-01-30T11:55:19.315Z,7.70
2023-01-30T11:56:19.301Z,7.73
2023-01-30T11:57:19.291Z,7.69
2023-01-30T11:58:19.259Z,7.76
2023-01-30T11:59:19.286Z,7.81
2023-01-30T12:00:19.930Z,7.95
2023-01-30T12:01:19.228Z,7.91
2023-01-30T12:02:19.329Z,7.92
2023-01-30T12:03:20.714Z,7.91
2023-01-30T12:04:19.196Z,8.00
2023-01-30T12:05:19.205Z,8.00
2023-01-30T12:06:19.177Z,7.96
2023-01-30T12:07:19.178Z,7.96
2023-01-30T12:08:24.661Z,7.82
2023-01-30T12:09:20.138Z,7.88
2023-01-30T12:10:19.723Z,7.77
2023-01-30T12:11:19.870Z,7.77
2023-01-30T12:12:19.107Z,7.82
2023-01-30T12:13:19.116Z,7.81
2023-01-30T12:14:19.102Z,7.74
2023-01-30T12:15:19.081Z,7.88
2023-01-30T12:16:19.208Z,7.81
2023-01-30T12:17:19.069Z,7.91
2023-01-30T12:18:19.066Z,7.77
2023-01-30T12:19:19.041Z,7.81
2023-01-30T12:20:19.459Z,7.94
2023-01-30T12:21:19.044Z,8.00
2023-01-30T12:22:19.015Z,8.02
2023-01-30T12:23:18.982Z,8.12
2023-01-30T12:24:19.917Z,8.10
2023-01-30T12:25:18.992Z,8.00
2023-01-30T12:26:19.007Z,7.96
2023-01-30T12:27:18.955Z,7.99
2023-01-30T12:28:18.943Z,7.95
2023-01-30T12:29:18.928Z,7.95
2023-01-30T12:30:19.418Z,7.96
2023-01-30T12:31:18.938Z,7.91
2023-01-30T12:32:18.908Z,7.89
2023-01-30T12:33:18.903Z,7.92
2023-01-30T12:34:18.876Z,7.84
2023-01-30T12:35:19.228Z,7.88
2023-01-30T12:36:18.853Z,7.88
2023-01-30T12:37:18.837Z,7.88
2023-01-30T12:38:18.828Z,7.91
2023-01-30T12:39:18.806Z,7.92
2023-01-30T12:40:18.801Z,7.99
2023-01-30T12:41:18.813Z,8.00
2023-01-30T12:42:20.125Z,8.00
2023-01-30T12:43:18.770Z,7.88
2023-01-30T12:44:20.408Z,7.92
2023-01-30T12:45:19.093Z,7.88
2023-01-30T12:46:18.808Z,7.86
2023-01-30T12:47:18.743Z,7.91
2023-01-30T12:48:18.739Z,7.86
2023-01-30T12:49:18.708Z,7.86
2023-01-30T12:50:18.698Z,7.86
2023-01-30T12:51:18.681Z,7.86
2023-01-30T12:52:18.693Z,7.79
2023-01-30T12:53:18.677Z,7.79
2023-01-30T12:54:20.325Z,7.79
2023-01-30T12:55:19.373Z,7.73
2023-01-30T12:56:18.626Z,7.74
2023-01-30T12:57:18.622Z,7.77
2023-01-30T12:58:18.621Z,7.63
2023-01-30T12:59:18.598Z,7.55
2023-01-30T13:00:19.054Z,7.60
2023-01-30T13:01:18.626Z,7.55
2023-01-30T13:02:18.643Z,7.51
2023-01-30T13:03:18.581Z,7.63
2023-01-30T13:04:18.560Z,7.52
2023-01-30T13:05:18.537Z,7.55
2023-01-30T13:06:18.518Z,7.45
2023-01-30T13:07:18.522Z,7.58
2023-01-30T13:08:18.492Z,7.58
2023-01-30T13:09:20.562Z,7.63
2023-01-30T13:10:19.011Z,7.69
2023-01-30T13:11:19.415Z,7.73
2023-01-30T13:12:18.475Z,7.79
2023-01-30T13:13:19.374Z,7.79
2023-01-30T13:14:18.429Z,7.76
2023-01-30T13:15:18.441Z,7.79
2023-01-30T13:16:18.527Z,7.79
2023-01-30T13:17:18.399Z,7.81
2023-01-30T13:18:18.410Z,7.84
2023-01-30T13:19:20.930Z,7.77